Time;durP1;ratioP1;P1;durP2;ratioP2;P2;SDS_P1;SDS_P2;PMS_P1;PMS_P2;Temp;Humidity;BMP_temperature;BMP_pressure;BME280_temperature;BME280_humidity;BME280_pressure;Samples;Min_cycle;Max_cycle;Signal;HPM_P1;HPM_P2
2023/05/19 00:01:46;;;;;;;3.97;1.60;;;;;;;;;;5051055;28;20520;-67
2023/05/19 00:04:13;;;;;;;6.07;1.93;;;;;;;;;;5049452;28;20025;-68
2023/05/19 00:06:40;;;;;;;7.43;1.80;;;;;;;;;;5051094;28;20025;-67
2023/05/19 00:09:06;;;;;;;7.38;2.10;;;;;;;;;;5051163;28;20025;-67
2023/05/19 00:11:34;;;;;;;8.07;1.98;;;;;;;;;;5048042;28;20482;-67
2023/05/19 00:14:00;;;;;;;10.27;1.95;;;;;;;;;;5045207;28;20064;-67
2023/05/19 00:16:26;;;;;;;4.47;1.77;;;;;;;;;;5051582;28;20060;-67
2023/05/19 00:18:52;;;;;;;7.18;2.00;;;;;;;;;;5051077;28;20090;-67
2023/05/19 00:21:17;;;;;;;10.63;2.28;;;;;;;;;;5051020;28;20028;-65
2023/05/19 00:23:42;;;;;;;5.75;2.08;;;;;;;;;;5050108;28;20017;-67
2023/05/19 00:26:07;;;;;;;9.25;1.98;;;;;;;;;;5051220;28;20017;-66
2023/05/19 00:28:33;;;;;;;9.40;1.83;;;;;;;;;;5050805;28;20025;-67
2023/05/19 00:30:58;;;;;;;6.28;1.77;;;;;;;;;;5051405;28;20147;-66
2023/05/19 00:33:23;;;;;;;8.82;2.50;;;;;;;;;;5050686;28;20021;-66
2023/05/19 00:35:49;;;;;;;8.13;1.70;;;;;;;;;;5050674;28;20025;-66
2023/05/19 00:38:14;;;;;;;11.38;2.42;;;;;;;;;;5048784;28;20471;-66
2023/05/19 00:40:40;;;;;;;4.75;1.70;;;;;;;;;;5050748;28;20092;-64
2023/05/19 00:43:07;;;;;;;5.95;1.90;;;;;;;;;;5050583;28;20025;-67
2023/05/19 00:45:33;;;;;;;11.48;2.10;;;;;;;;;;5047645;28;20016;-67
2023/05/19 00:47:58;;;;;;;6.75;2.00;;;;;;;;;;5050755;28;20029;-67
2023/05/19 00:50:23;;;;;;;6.90;1.50;;;;;;;;;;5049833;28;20566;-66
2023/05/19 00:52:50;;;;;;;5.05;1.65;;;;;;;;;;5047928;28;20489;-67
2023/05/19 00:55:15;;;;;;;5.55;2.20;;;;;;;;;;5044727;28;20025;-67
2023/05/19 00:57:41;;;;;;;7.05;1.90;;;;;;;;;;5050771;28;20139;-66
2023/05/19 01:00:07;;;;;;;7.60;1.92;;;;;;;;;;5050153;28;20509;-66
2023/05/19 01:02:33;;;;;;;14.48;2.63;;;;;;;;;;5050046;28;20025;-67
2023/05/19 01:04:59;;;;;;;6.93;1.95;;;;;;;;;;5062352;22;20118;-67
2023/05/19 01:07:24;;;;;;;7.50;2.00;;;;;;;;;;5048535;28;20475;-69
2023/05/19 01:09:50;;;;;;;5.18;2.03;;;;;;;;;;5048119;28;20029;-69
2023/05/19 01:12:15;;;;;;;10.00;2.08;;;;;;;;;;5047181;28;20028;-66
2023/05/19 01:14:41;;;;;;;6.57;2.17;;;;;;;;;;5048000;28;20028;-67
2023/05/19 01:17:19;;;;;;;11.60;2.83;;;;;;;;;;5035761;28;20471;-67
2023/05/19 01:20:01;;;;;;;7.75;1.88;;;;;;;;;;5017602;28;20026;-67
2023/05/19 01:22:35;;;;;;;8.18;1.90;;;;;;;;;;5032384;28;20139;-71
2023/05/19 01:25:09;;;;;;;7.97;2.22;;;;;;;;;;5047653;28;20067;-65
2023/05/19 01:27:49;;;;;;;3.78;1.50;;;;;;;;;;5033886;28;20036;-69
2023/05/19 01:30:18;;;;;;;6.07;1.80;;;;;;;;;;5042163;28;20039;-66
2023/05/19 01:32:44;;;;;;;9.18;1.90;;;;;;;;;;5040714;28;20018;-66
2023/05/19 01:35:11;;;;;;;6.63;2.10;;;;;;;;;;5039841;28;20528;-67
2023/05/19 01:37:37;;;;;;;8.73;2.13;;;;;;;;;;5039958;28;20021;-68
2023/05/19 01:40:03;;;;;;;9.48;1.98;;;;;;;;;;5042840;28;20509;-66
2023/05/19 01:42:28;;;;;;;8.88;2.05;;;;;;;;;;5037578;28;20017;-68
2023/05/19 01:44:54;;;;;;;6.65;1.90;;;;;;;;;;5027284;28;20013;-68
2023/05/19 01:47:19;;;;;;;7.95;2.17;;;;;;;;;;5028698;28;20422;-68
2023/05/19 01:49:45;;;;;;;12.60;2.13;;;;;;;;;;5029810;28;20041;-67
2023/05/19 01:52:10;;;;;;;6.57;1.90;;;;;;;;;;5035637;28;20230;-69
2023/05/19 01:54:35;;;;;;;6.65;1.83;;;;;;;;;;5025541;28;20433;-65
2023/05/19 01:57:21;;;;;;;16.08;2.25;;;;;;;;;;5036971;28;20048;-68
2023/05/19 02:00:06;;;;;;;5.40;2.08;;;;;;;;;;5047702;28;20139;-69
2023/05/19 02:02:43;;;;;;;5.13;1.95;;;;;;;;;;5045243;28;20353;-69
2023/05/19 02:05:13;;;;;;;10.85;2.10;;;;;;;;;;5037800;28;20021;-67
2023/05/19 02:07:49;;;;;;;6.22;2.15;;;;;;;;;;5024593;28;20121;-70
2023/05/19 02:10:19;;;;;;;4.90;1.70;;;;;;;;;;5047970;28;20083;-69
2023/05/19 02:12:46;;;;;;;5.25;2.00;;;;;;;;;;5042883;28;20502;-67
2023/05/19 02:15:15;;;;;;;3.05;1.50;;;;;;;;;;5035420;28;20382;-65
2023/05/19 02:17:43;;;;;;;8.68;1.98;;;;;;;;;;5046727;28;20078;-68
2023/05/19 02:20:09;;;;;;;4.78;1.77;;;;;;;;;;5035974;28;20064;-69
2023/05/19 02:22:34;;;;;;;8.75;2.20;;;;;;;;;;5026871;28;20087;-68
2023/05/19 02:25:00;;;;;;;6.75;2.00;;;;;;;;;;5026553;28;20105;-68
2023/05/19 02:27:25;;;;;;;5.70;1.70;;;;;;;;;;5041376;28;20100;-66
2023/05/19 02:29:50;;;;;;;7.85;2.30;;;;;;;;;;5027283;28;20029;-68
2023/05/19 02:32:16;;;;;;;7.80;2.25;;;;;;;;;;5018033;28;20420;-67
2023/05/19 02:34:44;;;;;;;6.93;2.25;;;;;;;;;;5036007;28;20124;-65
2023/05/19 02:37:13;;;;;;;9.30;3.47;;;;;;;;;;5031724;28;20400;-69
2023/05/19 02:39:38;;;;;;;4.53;1.98;;;;;;;;;;5035084;28;20022;-68
2023/05/19 02:42:04;;;;;;;5.63;2.10;;;;;;;;;;5040131;28;20025;-69
2023/05/19 02:44:29;;;;;;;8.15;2.05;;;;;;;;;;5026027;28;20021;-67
2023/05/19 02:46:54;;;;;;;11.43;1.80;;;;;;;;;;5028032;28;20025;-64
2023/05/19 02:49:19;;;;;;;9.65;2.88;;;;;;;;;;5039771;28;20018;-68
2023/05/19 02:51:45;;;;;;;6.75;2.50;;;;;;;;;;5029218;28;20175;-68
2023/05/19 02:54:10;;;;;;;6.70;2.00;;;;;;;;;;5019419;28;20025;-69
2023/05/19 02:56:35;;;;;;;8.13;1.80;;;;;;;;;;5028046;28;20025;-69
2023/05/19 02:59:00;;;;;;;3.88;1.83;;;;;;;;;;5039024;28;20482;-67
2023/05/19 03:01:25;;;;;;;5.90;1.83;;;;;;;;;;5040806;28;20026;-68
2023/05/19 03:03:51;;;;;;;6.78;2.13;;;;;;;;;;5038349;28;20100;-66
2023/05/19 03:06:16;;;;;;;7.72;2.08;;;;;;;;;;5033752;28;20043;-69
2023/05/19 03:08:42;;;;;;;7.00;2.10;;;;;;;;;;5039421;28;20048;-66
2023/05/19 03:11:07;;;;;;;6.55;2.00;;;;;;;;;;5033656;28;20159;-69
2023/05/19 03:13:33;;;;;;;8.88;2.53;;;;;;;;;;5041256;28;20459;-66
2023/05/19 03:15:58;;;;;;;10.32;2.30;;;;;;;;;;5034688;28;20502;-68
2023/05/19 03:18:24;;;;;;;9.73;2.33;;;;;;;;;;5051206;28;20200;-65
2023/05/19 03:20:50;;;;;;;10.35;2.35;;;;;;;;;;5037695;28;20374;-66
2023/05/19 03:23:15;;;;;;;5.72;2.20;;;;;;;;;;5047556;28;20027;-66
2023/05/19 03:25:40;;;;;;;6.28;2.10;;;;;;;;;;5049750;28;20336;-65
2023/05/19 03:28:05;;;;;;;13.38;2.55;;;;;;;;;;5049383;28;20062;-69
2023/05/19 03:30:31;;;;;;;10.65;2.55;;;;;;;;;;5046185;28;20021;-67
2023/05/19 03:32:56;;;;;;;7.90;2.10;;;;;;;;;;5030908;28;20049;-69
2023/05/19 03:35:21;;;;;;;11.93;2.25;;;;;;;;;;5030003;28;20108;-68
2023/05/19 03:37:46;;;;;;;5.47;2.42;;;;;;;;;;5030212;28;20086;-68
2023/05/19 03:40:12;;;;;;;8.30;2.58;;;;;;;;;;5036674;28;20017;-67
2023/05/19 03:42:37;;;;;;;7.00;2.40;;;;;;;;;;5042866;28;20037;-69
2023/05/19 03:45:02;;;;;;;5.53;2.53;;;;;;;;;;5040690;28;20490;-67
2023/05/19 03:47:27;;;;;;;18.15;2.85;;;;;;;;;;5049118;28;20029;-67
2023/05/19 03:49:53;;;;;;;8.75;1.85;;;;;;;;;;5047610;28;20079;-69
2023/05/19 03:52:18;;;;;;;8.85;2.40;;;;;;;;;;5030385;28;20083;-66
2023/05/19 03:54:43;;;;;;;5.95;2.22;;;;;;;;;;5021209;28;20391;-68
2023/05/19 03:57:09;;;;;;;4.80;2.03;;;;;;;;;;5030695;28;20363;-65
2023/05/19 03:59:36;;;;;;;7.88;2.30;;;;;;;;;;5046163;28;20100;-70
2023/05/19 04:02:01;;;;;;;6.13;2.55;;;;;;;;;;5050478;28;20087;-65
2023/05/19 04:04:27;;;;;;;6.80;2.22;;;;;;;;;;5034059;28;20053;-67
2023/05/19 04:06:52;;;;;;;7.82;2.50;;;;;;;;;;5049905;28;20036;-68
2023/05/19 04:09:18;;;;;;;10.00;2.35;;;;;;;;;;5031913;28;20117;-68
2023/05/19 04:11:43;;;;;;;7.93;2.40;;;;;;;;;;5037951;28;20024;-69
2023/05/19 04:14:08;;;;;;;6.03;2.15;;;;;;;;;;5029263;28;20025;-65
2023/05/19 04:16:34;;;;;;;5.13;2.28;;;;;;;;;;5039056;28;20029;-68
2023/05/19 04:18:59;;;;;;;8.65;2.75;;;;;;;;;;5048489;28;20024;-68
2023/05/19 04:21:25;;;;;;;6.75;2.08;;;;;;;;;;5038617;28;20017;-67
2023/05/19 04:23:50;;;;;;;13.93;3.10;;;;;;;;;;5037507;28;20021;-68
2023/05/19 04:26:16;;;;;;;9.90;2.60;;;;;;;;;;5049125;28;20028;-69
2023/05/19 04:28:43;;;;;;;8.48;2.80;;;;;;;;;;5044190;28;20082;-68
2023/05/19 04:31:09;;;;;;;10.07;2.28;;;;;;;;;;5049827;28;20437;-68
2023/05/19 04:33:35;;;;;;;9.98;3.38;;;;;;;;;;5046627;28;20021;-70
2023/05/19 04:36:04;;;;;;;7.45;3.03;;;;;;;;;;5038533;28;20017;-68
2023/05/19 04:38:29;;;;;;;7.80;2.80;;;;;;;;;;5043408;28;20238;-70
2023/05/19 04:40:55;;;;;;;6.82;2.10;;;;;;;;;;5048970;28;20021;-67
2023/05/19 04:43:21;;;;;;;12.48;2.47;;;;;;;;;;5034614;28;20039;-66
2023/05/19 04:45:49;;;;;;;6.32;2.50;;;;;;;;;;5030109;28;20010;-68
2023/05/19 04:48:14;;;;;;;7.75;3.03;;;;;;;;;;5046150;28;20075;-68
2023/05/19 04:50:41;;;;;;;5.43;2.50;;;;;;;;;;5049398;28;20029;-69
2023/05/19 04:53:06;;;;;;;6.97;2.80;;;;;;;;;;5031930;28;20025;-69
2023/05/19 04:55:31;;;;;;;7.68;2.70;;;;;;;;;;5028045;28;20063;-69
2023/05/19 04:57:57;;;;;;;7.45;2.50;;;;;;;;;;5045698;28;20132;-68
2023/05/19 05:00:22;;;;;;;7.63;2.80;;;;;;;;;;5048969;28;20056;-69
2023/05/19 05:02:48;;;;;;;4.47;2.05;;;;;;;;;;5047404;28;20025;-66
2023/05/19 05:05:13;;;;;;;6.53;2.40;;;;;;;;;;5048039;28;20032;-69
2023/05/19 05:07:39;;;;;;;9.32;3.47;;;;;;;;;;5046006;28;20024;-69
2023/05/19 05:10:04;;;;;;;6.95;2.20;;;;;;;;;;5028522;28;20026;-69
2023/05/19 05:12:30;;;;;;;11.25;2.60;;;;;;;;;;5037206;28;20374;-65
2023/05/19 05:14:55;;;;;;;10.90;2.40;;;;;;;;;;5027849;28;20160;-68
2023/05/19 05:17:20;;;;;;;6.82;2.70;;;;;;;;;;5044569;28;20055;-69
2023/05/19 05:19:47;;;;;;;8.75;2.75;;;;;;;;;;5049217;28;20080;-68
2023/05/19 05:22:12;;;;;;;6.95;2.75;;;;;;;;;;5047594;28;20017;-68
2023/05/19 05:24:38;;;;;;;9.52;2.50;;;;;;;;;;5027727;28;20017;-66
2023/05/19 05:27:04;;;;;;;9.20;2.40;;;;;;;;;;5028018;28;20479;-68
2023/05/19 05:29:29;;;;;;;6.60;2.47;;;;;;;;;;5028600;28;20021;-69
2023/05/19 05:31:55;;;;;;;7.15;2.45;;;;;;;;;;5030270;28;20364;-68
2023/05/19 05:34:20;;;;;;;9.13;2.45;;;;;;;;;;5049164;28;20044;-68
2023/05/19 05:36:45;;;;;;;5.22;2.55;;;;;;;;;;5034939;28;20021;-69
2023/05/19 05:39:10;;;;;;;5.88;1.95;;;;;;;;;;5038392;28;20021;-69
2023/05/19 05:41:36;;;;;;;5.55;2.78;;;;;;;;;;5039024;28;20096;-66
2023/05/19 05:44:01;;;;;;;7.68;2.45;;;;;;;;;;5036757;28;20017;-68
2023/05/19 05:46:26;;;;;;;6.63;2.28;;;;;;;;;;5042013;28;20086;-68
2023/05/19 05:48:52;;;;;;;7.15;3.53;;;;;;;;;;5048268;28;20103;-68
2023/05/19 05:51:20;;;;;;;9.68;1.95;;;;;;;;;;5048391;28;20096;-68
2023/05/19 05:53:48;;;;;;;5.15;2.00;;;;;;;;;;5032423;28;20017;-68
2023/05/19 05:56:14;;;;;;;11.38;2.83;;;;;;;;;;5029810;28;20481;-68
2023/05/19 05:58:40;;;;;;;7.95;2.45;;;;;;;;;;5047670;28;20056;-67
2023/05/19 06:01:09;;;;;;;7.40;2.20;;;;;;;;;;5048077;28;20013;-67
2023/05/19 06:03:36;;;;;;;8.90;2.78;;;;;;;;;;5044345;28;20104;-68
2023/05/19 06:06:02;;;;;;;5.38;2.45;;;;;;;;;;5048143;28;20037;-68
2023/05/19 06:08:27;;;;;;;8.55;2.45;;;;;;;;;;5047845;28;20044;-67
2023/05/19 06:10:52;;;;;;;8.02;2.38;;;;;;;;;;5045284;28;20033;-68
2023/05/19 06:13:21;;;;;;;10.85;2.70;;;;;;;;;;5042366;28;20074;-68
2023/05/19 06:15:46;;;;;;;8.05;2.63;;;;;;;;;;5034933;28;20077;-64
2023/05/19 06:18:14;;;;;;;7.47;2.65;;;;;;;;;;5048104;28;20112;-69
2023/05/19 06:20:39;;;;;;;9.37;2.47;;;;;;;;;;5048288;28;20032;-66
2023/05/19 06:23:05;;;;;;;6.53;2.58;;;;;;;;;;5047569;28;20033;-68
2023/05/19 06:25:30;;;;;;;8.73;2.75;;;;;;;;;;5033709;28;20082;-68
2023/05/19 06:27:55;;;;;;;6.38;2.45;;;;;;;;;;5048002;28;20028;-69
2023/05/19 06:30:20;;;;;;;5.85;2.50;;;;;;;;;;5040862;28;20026;-68
2023/05/19 06:32:45;;;;;;;6.70;2.30;;;;;;;;;;5037225;28;20021;-66
2023/05/19 06:35:11;;;;;;;8.68;2.80;;;;;;;;;;5033529;28;20132;-68
2023/05/19 06:37:36;;;;;;;6.85;2.45;;;;;;;;;;5045960;28;20024;-68
2023/05/19 06:40:01;;;;;;;8.73;2.17;;;;;;;;;;5040057;28;20029;-70
2023/05/19 06:42:26;;;;;;;6.47;2.55;;;;;;;;;;5037362;28;20037;-70
2023/05/19 06:44:52;;;;;;;6.05;2.83;;;;;;;;;;5029971;28;20036;-69
2023/05/19 06:47:17;;;;;;;10.77;2.78;;;;;;;;;;5027845;28;20191;-67
2023/05/19 06:49:49;;;;;;;6.32;2.25;;;;;;;;;;5044719;28;20048;-70
2023/05/19 06:52:14;;;;;;;7.13;2.67;;;;;;;;;;5051519;28;20028;-68
2023/05/19 06:54:40;;;;;;;7.53;2.72;;;;;;;;;;5029514;28;20028;-68
2023/05/19 06:57:05;;;;;;;8.43;2.75;;;;;;;;;;5031368;28;20099;-66
2023/05/19 06:59:30;;;;;;;8.38;2.90;;;;;;;;;;5033816;28;20024;-69
2023/05/19 07:01:55;;;;;;;7.57;2.63;;;;;;;;;;5051584;28;20017;-67
2023/05/19 07:04:21;;;;;;;6.90;2.50;;;;;;;;;;5014628;28;20021;-69
2023/05/19 07:06:46;;;;;;;7.80;2.55;;;;;;;;;;5066475;22;20053;-63
2023/05/19 07:09:11;;;;;;;10.45;2.60;;;;;;;;;;5066309;28;20119;-66
2023/05/19 07:11:37;;;;;;;7.63;2.75;;;;;;;;;;5060110;28;20048;-63
2023/05/19 07:14:02;;;;;;;6.80;3.47;;;;;;;;;;5052462;28;20017;-66
2023/05/19 07:16:27;;;;;;;9.60;2.10;;;;;;;;;;5062207;28;20035;-64
2023/05/19 07:18:52;;;;;;;5.85;2.50;;;;;;;;;;5059419;28;20032;-65
2023/05/19 07:21:18;;;;;;;9.98;3.08;;;;;;;;;;5063988;28;20021;-64
2023/05/19 07:23:43;;;;;;;5.57;2.60;;;;;;;;;;5049843;28;20013;-64
2023/05/19 07:26:08;;;;;;;10.50;2.67;;;;;;;;;;5060064;28;20509;-64
2023/05/19 07:28:33;;;;;;;8.30;2.55;;;;;;;;;;5058520;28;20032;-62
2023/05/19 07:30:59;;;;;;;8.90;2.83;;;;;;;;;;5064583;28;20017;-63
2023/05/19 07:33:25;;;;;;;4.45;1.98;;;;;;;;;;5051820;28;20446;-64
2023/05/19 07:35:51;;;;;;;8.23;2.47;;;;;;;;;;5057592;28;20066;-64
2023/05/19 07:38:16;;;;;;;8.23;2.55;;;;;;;;;;5058538;28;20029;-63
2023/05/19 07:40:41;;;;;;;9.38;2.67;;;;;;;;;;5065328;28;20071;-64
2023/05/19 07:43:06;;;;;;;7.18;2.72;;;;;;;;;;5052972;28;20096;-64
2023/05/19 07:45:32;;;;;;;5.75;2.80;;;;;;;;;;5061537;28;20100;-64
2023/05/19 07:47:57;;;;;;;9.75;2.40;;;;;;;;;;5059176;28;20043;-64
2023/05/19 07:50:22;;;;;;;5.40;2.08;;;;;;;;;;5065868;28;20028;-60
2023/05/19 07:52:47;;;;;;;11.70;2.03;;;;;;;;;;5051283;28;20438;-63
2023/05/19 07:55:13;;;;;;;9.98;2.38;;;;;;;;;;5046827;28;20124;-63
2023/05/19 07:57:39;;;;;;;6.40;2.10;;;;;;;;;;5065345;28;20140;-64
2023/05/19 08:00:08;;;;;;;8.65;2.17;;;;;;;;;;5059091;28;20108;-60
2023/05/19 08:02:34;;;;;;;6.57;2.35;;;;;;;;;;5055458;28;20040;-60
2023/05/19 08:04:59;;;;;;;4.82;2.10;;;;;;;;;;5051747;28;20406;-63
2023/05/19 08:07:24;;;;;;;11.93;1.80;;;;;;;;;;5053924;28;20502;-61
2023/05/19 08:09:50;;;;;;;5.25;1.77;;;;;;;;;;5052094;28;20402;-64
2023/05/19 08:12:15;;;;;;;7.78;2.33;;;;;;;;;;5060825;28;20500;-64
2023/05/19 08:14:40;;;;;;;9.15;2.80;;;;;;;;;;5063573;28;20536;-65
2023/05/19 08:17:05;;;;;;;7.85;2.30;;;;;;;;;;5051811;28;20025;-65
2023/05/19 08:19:31;;;;;;;5.20;2.00;;;;;;;;;;5052020;28;20527;-64
2023/05/19 08:21:57;;;;;;;6.40;2.13;;;;;;;;;;5051019;28;20036;-64
2023/05/19 08:24:22;;;;;;;5.45;2.00;;;;;;;;;;5063449;28;20027;-64
2023/05/19 08:26:47;;;;;;;10.57;2.40;;;;;;;;;;5051326;28;20021;-64
2023/05/19 08:29:12;;;;;;;11.38;2.30;;;;;;;;;;5056784;28;20043;-64
2023/05/19 08:31:37;;;;;;;7.03;2.40;;;;;;;;;;5058264;28;20090;-64
2023/05/19 08:34:03;;;;;;;4.97;2.00;;;;;;;;;;5050530;28;20025;-62
2023/05/19 08:36:29;;;;;;;6.72;2.35;;;;;;;;;;5062354;28;20109;-66
2023/05/19 08:38:54;;;;;;;8.82;2.50;;;;;;;;;;5049101;28;20051;-64
2023/05/19 08:41:20;;;;;;;6.50;2.80;;;;;;;;;;5051130;28;20048;-65
2023/05/19 08:43:45;;;;;;;9.98;2.28;;;;;;;;;;5053511;28;20027;-65
2023/05/19 08:46:13;;;;;;;11.63;2.58;;;;;;;;;;5062559;28;20021;-60
2023/05/19 08:48:39;;;;;;;6.20;2.28;;;;;;;;;;5056342;28;20100;-65
2023/05/19 08:51:16;;;;;;;9.52;2.80;;;;;;;;;;5055960;28;20017;-62
2023/05/19 08:53:44;;;;;;;9.25;2.55;;;;;;;;;;5031287;28;20019;-64
2023/05/19 08:56:10;;;;;;;9.63;2.38;;;;;;;;;;5051644;28;20009;-64
2023/05/19 08:58:41;;;;;;;11.82;2.50;;;;;;;;;;5061535;28;20500;-64
2023/05/19 09:01:07;;;;;;;7.00;2.22;;;;;;;;;;5063797;28;20019;-64
2023/05/19 09:03:36;;;;;;;8.13;2.38;;;;;;;;;;5047065;28;20480;-66
2023/05/19 09:06:11;;;;;;;9.23;2.53;;;;;;;;;;5063243;28;20093;-63
2023/05/19 09:08:37;;;;;;;7.07;2.13;;;;;;;;;;5060424;28;20094;-61
2023/05/19 09:11:02;;;;;;;9.82;2.30;;;;;;;;;;5052182;28;20024;-64
2023/05/19 09:13:27;;;;;;;5.90;2.70;;;;;;;;;;5058961;28;20073;-63
2023/05/19 09:15:55;;;;;;;7.93;2.22;;;;;;;;;;5056744;28;20028;-63
2023/05/19 09:18:20;;;;;;;6.75;2.30;;;;;;;;;;5058916;28;20032;-64
2023/05/19 09:20:46;;;;;;;6.78;2.50;;;;;;;;;;5063763;28;20013;-61
2023/05/19 09:23:14;;;;;;;5.88;2.22;;;;;;;;;;5049543;28;20471;-64
2023/05/19 09:25:40;;;;;;;;;;;;;;;;;;5049569;28;20020;-64
2023/05/19 09:28:07;;;;;;;7.35;1.92;;;;;;;;;;5050694;28;20466;-63
2023/05/19 09:30:32;;;;;;;7.85;2.40;;;;;;;;;;5050091;28;20039;-63
2023/05/19 09:32:57;;;;;;;8.50;2.03;;;;;;;;;;5049312;28;20486;-63
2023/05/19 09:35:23;;;;;;;5.57;1.65;;;;;;;;;;5050118;28;20485;-64
2023/05/19 09:37:48;;;;;;;11.00;1.60;;;;;;;;;;5054978;28;20033;-65
2023/05/19 09:40:14;;;;;;;4.00;1.60;;;;;;;;;;5063518;28;20029;-64
2023/05/19 09:42:40;;;;;;;10.32;1.92;;;;;;;;;;5050195;28;20371;-64
2023/05/19 09:45:05;;;;;;;9.98;1.70;;;;;;;;;;5056167;28;20381;-65
2023/05/19 09:47:37;;;;;;;4.38;1.55;;;;;;;;;;5060182;28;20063;-65
2023/05/19 09:50:03;;;;;;;8.38;1.90;;;;;;;;;;5048704;28;20055;-64
2023/05/19 09:52:29;;;;;;;4.30;1.60;;;;;;;;;;5049725;28;20020;-64
2023/05/19 09:54:55;;;;;;;3.65;1.63;;;;;;;;;;5042307;28;20737;-65
2023/05/19 09:57:24;;;;;;;3.53;1.55;;;;;;;;;;5063126;28;20032;-64
2023/05/19 09:59:49;;;;;;;;;;;;;;;;;;5057270;28;20020;-65
2023/05/19 10:02:16;;;;;;;4.00;1.75;;;;;;;;;;5057660;28;20493;-62
2023/05/19 10:04:42;;;;;;;6.07;1.60;;;;;;;;;;5048363;28;20033;-66
2023/05/19 10:07:08;;;;;;;7.85;1.98;;;;;;;;;;5060913;28;20074;-61
2023/05/19 10:09:35;;;;;;;6.03;1.70;;;;;;;;;;5056545;28;20371;-64
2023/05/19 10:12:01;;;;;;;7.32;1.70;;;;;;;;;;5055986;28;20029;-64
2023/05/19 10:14:27;;;;;;;4.00;1.45;;;;;;;;;;5048635;28;20043;-64
2023/05/19 10:16:53;;;;;;;5.57;1.90;;;;;;;;;;5060918;28;20079;-64
2023/05/19 10:19:26;;;;;;;4.70;1.67;;;;;;;;;;5050401;28;20040;-63
2023/05/19 10:21:51;;;;;;;6.15;1.85;;;;;;;;;;5049453;28;20036;-64
2023/05/19 10:24:17;;;;;;;5.47;1.40;;;;;;;;;;5042405;28;20024;-63
2023/05/19 10:26:44;;;;;;;6.00;2.10;;;;;;;;;;5055331;28;20056;-64
2023/05/19 10:29:10;;;;;;;17.13;2.95;;;;;;;;;;5039252;28;20032;-62
2023/05/19 10:31:36;;;;;;;7.80;2.28;;;;;;;;;;5049155;28;20075;-65
2023/05/19 10:34:13;;;;;;;8.60;1.92;;;;;;;;;;5046968;28;20033;-64
2023/05/19 10:36:44;;;;;;;9.68;1.85;;;;;;;;;;5062426;28;20111;-63
2023/05/19 10:39:17;;;;;;;5.30;1.70;;;;;;;;;;5057857;28;20104;-64
2023/05/19 10:41:48;;;;;;;6.43;1.85;;;;;;;;;;5052710;28;20114;-64
2023/05/19 10:44:30;;;;;;;4.53;1.80;;;;;;;;;;5047908;28;20067;-64
2023/05/19 10:46:55;;;;;;;10.15;2.00;;;;;;;;;;5049184;28;20059;-64
2023/05/19 10:49:21;;;;;;;5.90;1.80;;;;;;;;;;5061046;28;20017;-65
2023/05/19 10:51:47;;;;;;;9.23;1.92;;;;;;;;;;5055028;28;20025;-64
2023/05/19 10:54:14;;;;;;;6.35;2.08;;;;;;;;;;5050164;28;20032;-64
2023/05/19 10:56:42;;;;;;;5.73;2.40;;;;;;;;;;5055557;28;20024;-65
2023/05/19 10:59:27;;;;;;;8.93;2.17;;;;;;;;;;5056023;28;20532;-64
2023/05/19 11:01:53;;;;;;;7.75;2.45;;;;;;;;;;5038230;28;20021;-65
2023/05/19 11:04:36;;;;;;;6.32;2.22;;;;;;;;;;5047571;28;20104;-63
2023/05/19 11:07:02;;;;;;;5.55;1.90;;;;;;;;;;5058840;28;20043;-65
2023/05/19 11:09:29;;;;;;;4.35;1.75;;;;;;;;;;5051001;28;20020;-63
2023/05/19 11:11:54;;;;;;;5.40;2.22;;;;;;;;;;5047036;28;20095;-62
2023/05/19 11:14:20;;;;;;;7.70;2.20;;;;;;;;;;5061760;28;20215;-62
2023/05/19 11:16:49;;;;;;;6.80;2.05;;;;;;;;;;5048917;28;20025;-65
2023/05/19 11:19:18;;;;;;;6.53;2.00;;;;;;;;;;5047018;28;20028;-62
2023/05/19 11:21:49;;;;;;;6.53;1.83;;;;;;;;;;5048476;28;20009;-63
2023/05/19 11:24:34;;;;;;;8.80;2.20;;;;;;;;;;5061759;28;20112;-64
2023/05/19 11:27:16;;;;;;;9.18;2.17;;;;;;;;;;5062254;28;20078;-64
2023/05/19 11:29:41;;;;;;;6.10;2.05;;;;;;;;;;5059312;28;20056;-64
2023/05/19 11:32:06;;;;;;;6.10;2.28;;;;;;;;;;5049518;28;20553;-65
2023/05/19 11:34:32;;;;;;;6.32;2.67;;;;;;;;;;5047854;28;20458;-65
2023/05/19 11:36:58;;;;;;;5.97;2.28;;;;;;;;;;5048553;28;20087;-62
2023/05/19 11:39:24;;;;;;;5.30;2.20;;;;;;;;;;5053140;28;20017;-63
2023/05/19 11:41:50;;;;;;;7.40;1.90;;;;;;;;;;5051014;28;20104;-64
2023/05/19 11:44:15;;;;;;;5.30;2.35;;;;;;;;;;5051641;28;20112;-64
2023/05/19 11:46:40;;;;;;;4.72;1.98;;;;;;;;;;5056627;28;20021;-65
2023/05/19 11:49:05;;;;;;;6.65;2.13;;;;;;;;;;5060289;28;20078;-63
2023/05/19 11:51:32;;;;;;;11.80;2.25;;;;;;;;;;5053094;28;20558;-63
2023/05/19 11:53:57;;;;;;;12.07;2.40;;;;;;;;;;5044580;28;20108;-65
2023/05/19 11:56:22;;;;;;;5.22;1.88;;;;;;;;;;5051841;28;20151;-66
2023/05/19 11:58:48;;;;;;;3.83;1.63;;;;;;;;;;5051882;28;20030;-65
2023/05/19 12:01:13;;;;;;;7.97;2.20;;;;;;;;;;5065538;28;20016;-64
2023/05/19 12:03:38;;;;;;;4.82;1.90;;;;;;;;;;5048878;28;20398;-63
2023/05/19 12:06:05;;;;;;;7.68;2.33;;;;;;;;;;5051470;28;20021;-60
2023/05/19 12:08:30;;;;;;;4.10;1.90;;;;;;;;;;5061308;28;20016;-65
2023/05/19 12:10:56;;;;;;;6.50;1.92;;;;;;;;;;5055833;28;20073;-62
2023/05/19 12:13:21;;;;;;;6.47;2.25;;;;;;;;;;5056269;28;20020;-62
2023/05/19 12:15:46;;;;;;;6.60;1.80;;;;;;;;;;5051052;28;20025;-61
2023/05/19 12:18:12;;;;;;;5.40;2.05;;;;;;;;;;5051605;28;20021;-64
2023/05/19 12:20:37;;;;;;;7.70;1.85;;;;;;;;;;5051535;28;20036;-65
2023/05/19 12:23:02;;;;;;;14.32;1.95;;;;;;;;;;5051776;28;20024;-64
2023/05/19 12:25:28;;;;;;;9.73;1.88;;;;;;;;;;5053186;28;20569;-63
2023/05/19 12:28:01;;;;;;;3.85;1.80;;;;;;;;;;5062812;28;20539;-63
2023/05/19 12:30:30;;;;;;;12.52;2.25;;;;;;;;;;5061351;28;20032;-64
2023/05/19 12:32:56;;;;;;;5.15;1.52;;;;;;;;;;5062197;28;20509;-64
2023/05/19 12:35:24;;;;;;;5.40;1.90;;;;;;;;;;5056959;28;20478;-64
2023/05/19 12:37:50;;;;;;;9.65;2.10;;;;;;;;;;5060621;28;20108;-64
2023/05/19 12:40:15;;;;;;;6.97;2.08;;;;;;;;;;5050777;28;20128;-64
2023/05/19 12:42:43;;;;;;;4.32;1.95;;;;;;;;;;5051765;28;20029;-64
2023/05/19 12:45:08;;;;;;;7.53;1.77;;;;;;;;;;5057027;28;20020;-65
2023/05/19 12:47:34;;;;;;;7.03;1.67;;;;;;;;;;5059768;28;20111;-65
2023/05/19 12:50:09;;;;;;;8.73;1.70;;;;;;;;;;5064735;28;20100;-65
2023/05/19 12:52:40;;;;;;;4.40;1.77;;;;;;;;;;5062483;28;20013;-64
2023/05/19 12:55:07;;;;;;;7.00;1.65;;;;;;;;;;5044083;28;20097;-63
2023/05/19 12:57:36;;;;;;;14.30;1.95;;;;;;;;;;5051116;28;20419;-66
2023/05/19 13:00:09;;;;;;;5.65;1.60;;;;;;;;;;5037509;28;20075;-64
2023/05/19 13:02:35;;;;;;;5.68;1.77;;;;;;;;;;5048687;28;20028;-64
2023/05/19 13:05:01;;;;;;;8.10;1.83;;;;;;;;;;5049505;28;20017;-62
2023/05/19 13:07:26;;;;;;;9.27;2.13;;;;;;;;;;5035406;22;20115;-71
2023/05/19 13:09:51;;;;;;;6.95;1.83;;;;;;;;;;5031099;28;20021;-70
2023/05/19 13:12:17;;;;;;;7.47;2.20;;;;;;;;;;5047190;28;20023;-68
2023/05/19 13:14:42;;;;;;;6.88;2.28;;;;;;;;;;5047898;28;20024;-67
2023/05/19 13:17:08;;;;;;;12.70;2.33;;;;;;;;;;5048563;28;20346;-70
2023/05/19 13:19:33;;;;;;;7.50;2.03;;;;;;;;;;5048818;28;20028;-69
2023/05/19 13:21:58;;;;;;;5.07;1.80;;;;;;;;;;5043765;28;20104;-67
2023/05/19 13:24:23;;;;;;;6.35;1.88;;;;;;;;;;5027976;28;20096;-69
2023/05/19 13:26:49;;;;;;;3.97;1.50;;;;;;;;;;5023407;28;20474;-72
2023/05/19 13:29:14;;;;;;;5.65;1.80;;;;;;;;;;5048173;28;20020;-68
2023/05/19 13:31:39;;;;;;;6.30;1.88;;;;;;;;;;5048854;28;20025;-68
2023/05/19 13:34:05;;;;;;;6.80;1.98;;;;;;;;;;5048114;28;20067;-68
2023/05/19 13:36:32;;;;;;;7.80;2.25;;;;;;;;;;5048229;28;20040;-66
2023/05/19 13:38:57;;;;;;;3.92;1.73;;;;;;;;;;5034539;28;20017;-66
2023/05/19 13:41:23;;;;;;;5.60;1.83;;;;;;;;;;5017738;28;20037;-68
2023/05/19 13:43:49;;;;;;;7.35;1.80;;;;;;;;;;5038912;28;20017;-71
2023/05/19 13:46:14;;;;;;;4.03;1.83;;;;;;;;;;5048453;28;20394;-67
2023/05/19 13:48:39;;;;;;;9.88;1.70;;;;;;;;;;5048444;28;20029;-69
2023/05/19 13:51:04;;;;;;;5.65;1.70;;;;;;;;;;5017541;28;20128;-68
2023/05/19 13:53:31;;;;;;;7.10;1.92;;;;;;;;;;5027866;28;20428;-68
2023/05/19 13:55:56;;;;;;;15.68;1.65;;;;;;;;;;5048274;28;20086;-66
2023/05/19 13:58:22;;;;;;;5.22;1.83;;;;;;;;;;5047046;28;20444;-69
2023/05/19 14:00:48;;;;;;;9.55;2.03;;;;;;;;;;5047961;28;20013;-67
2023/05/19 14:03:14;;;;;;;3.25;1.58;;;;;;;;;;5038983;28;20494;-69
2023/05/19 14:05:40;;;;;;;4.47;1.70;;;;;;;;;;5040895;28;20032;-69
2023/05/19 14:08:05;;;;;;;7.38;1.70;;;;;;;;;;5040668;28;20412;-69
2023/05/19 14:10:30;;;;;;;5.00;2.03;;;;;;;;;;5039102;28;20112;-68
2023/05/19 14:12:58;;;;;;;7.18;1.88;;;;;;;;;;5041093;28;20119;-69
2023/05/19 14:15:24;;;;;;;12.00;2.10;;;;;;;;;;5040800;28;20055;-65
2023/05/19 14:17:49;;;;;;;6.07;2.00;;;;;;;;;;5034640;28;20335;-68
2023/05/19 14:20:14;;;;;;;5.03;1.67;;;;;;;;;;5047859;28;20395;-66
2023/05/19 14:22:40;;;;;;;4.63;1.60;;;;;;;;;;5015747;28;20117;-68
2023/05/19 14:25:05;;;;;;;6.43;1.50;;;;;;;;;;5033921;28;20636;-69
2023/05/19 14:27:30;;;;;;;7.57;2.00;;;;;;;;;;5029332;28;20352;-68
2023/05/19 14:29:56;;;;;;;4.53;1.80;;;;;;;;;;5047324;28;20025;-66
2023/05/19 14:32:21;;;;;;;7.80;2.35;;;;;;;;;;5047808;28;20420;-70
2023/05/19 14:34:46;;;;;;;7.72;2.17;;;;;;;;;;5046939;28;20029;-66
2023/05/19 14:37:11;;;;;;;7.90;1.88;;;;;;;;;;5046400;28;20036;-67